createdAt,value
2022-12-19T00:00:30.428Z,64.43
2022-12-19T00:02:59.717Z,64.12
2022-12-19T00:05:27.974Z,64.82
2022-12-19T00:07:55.867Z,64.46
2022-12-19T00:10:24.855Z,64.34
2022-12-19T00:12:52.782Z,64.48
2022-12-19T00:15:20.712Z,63.97
2022-12-19T00:17:48.743Z,63.53
2022-12-19T00:20:18.593Z,63.11
2022-12-19T00:22:46.648Z,63.46
2022-12-19T00:25:14.486Z,63.84
2022-12-19T00:27:42.316Z,63.65
2022-12-19T00:30:11.894Z,64.40
2022-12-19T00:32:39.735Z,63.46
2022-12-19T00:35:08.121Z,64.15
2022-12-19T00:37:37.478Z,64.72
2022-12-19T00:40:10.863Z,64.47
2022-12-19T00:42:38.664Z,64.40
2022-12-19T00:45:07.358Z,64.59
2022-12-19T00:47:36.098Z,64.02
2022-12-19T00:50:04.726Z,64.90
2022-12-19T00:52:32.566Z,64.80
2022-12-19T00:55:03.693Z,64.18
2022-12-19T00:57:37.225Z,64.59
2022-12-19T01:00:06.264Z,64.64
2022-12-19T01:02:34.424Z,65.00
2022-12-19T01:05:02.379Z,64.38
2022-12-19T01:07:33.301Z,64.72
2022-12-19T01:10:01.376Z,64.48
2022-12-19T01:12:49.064Z,64.34
2022-12-19T01:15:18.255Z,64.76
2022-12-19T01:17:46.147Z,64.34
2022-12-19T01:20:15.112Z,64.94
2022-12-19T01:22:42.988Z,64.57
2022-12-19T01:25:10.825Z,64.61
2022-12-19T01:27:40.768Z,65.52
2022-12-19T01:30:09.877Z,64.73
2022-12-19T01:32:39.089Z,64.92
2022-12-19T01:35:09.854Z,64.63
2022-12-19T01:37:49.424Z,64.61
2022-12-19T01:40:17.326Z,64.81
2022-12-19T01:42:46.571Z,64.77
2022-12-19T01:45:32.032Z,64.75
2022-12-19T01:48:13.410Z,64.34
2022-12-19T01:50:53.598Z,64.09
2022-12-19T01:53:33.065Z,64.70
2022-12-19T01:56:08.854Z,64.18
2022-12-19T01:58:41.299Z,64.49
2022-12-19T02:01:09.403Z,63.95
2022-12-19T02:03:39.019Z,63.95
2022-12-19T02:06:09.513Z,63.88
2022-12-19T02:08:38.498Z,64.35
2022-12-19T02:11:06.762Z,64.23
2022-12-19T02:13:35.041Z,64.02
2022-12-19T02:16:16.722Z,63.56
2022-12-19T02:18:56.148Z,64.01
2022-12-19T02:21:32.203Z,63.55
2022-12-19T02:24:47.644Z,63.66
2022-12-19T02:27:42.290Z,63.73
2022-12-19T02:30:13.890Z,63.33
2022-12-19T02:32:49.697Z,63.84
2022-12-19T02:35:27.071Z,63.72
2022-12-19T02:38:06.296Z,63.84
2022-12-19T02:40:42.868Z,63.34
2022-12-19T02:43:14.674Z,64.32
2022-12-19T02:45:44.062Z,64.55
2022-12-19T02:48:18.902Z,65.00
2022-12-19T02:50:49.955Z,64.93
2022-12-19T02:53:22.448Z,65.01
2022-12-19T02:56:10.628Z,65.12
2022-12-19T02:58:58.789Z,65.51
2022-12-19T03:01:41.333Z,65.37
2022-12-19T03:04:18.737Z,65.70
2022-12-19T03:06:51.572Z,65.90
2022-12-19T03:09:28.305Z,66.50
2022-12-19T03:12:09.131Z,66.81
2022-12-19T03:14:38.879Z,68.09
2022-12-19T03:17:08.780Z,68.23
2022-12-19T03:19:41.244Z,68.39
2022-12-19T03:22:09.365Z,68.18
2022-12-19T03:24:37.232Z,68.59
2022-12-19T03:27:10.636Z,69.06
2022-12-19T03:29:43.842Z,69.44
2022-12-19T03:32:17.424Z,69.16
2022-12-19T03:34:51.542Z,69.31
2022-12-19T03:37:23.794Z,69.98
2022-12-19T03:39:58.915Z,69.80
2022-12-19T03:42:47.418Z,70.58
2022-12-19T03:45:19.851Z,70.65
2022-12-19T03:47:52.256Z,71.09
2022-12-19T03:50:25.062Z,71.16
2022-12-19T03:53:01.238Z,71.57
2022-12-19T03:55:36.034Z,71.79
2022-12-19T03:58:08.882Z,71.44
2022-12-19T04:00:41.638Z,72.00
2022-12-19T04:03:11.443Z,71.67
2022-12-19T04:05:43.570Z,72.08
2022-12-19T04:08:12.976Z,71.27
2022-12-19T04:10:47.341Z,71.81
2022-12-19T04:13:19.848Z,71.43
2022-12-19T04:15:53.717Z,71.25
2022-12-19T04:18:22.399Z,71.50
2022-12-19T04:20:59.421Z,71.68
2022-12-19T04:23:33.356Z,71.70
2022-12-19T04:26:05.331Z,71.90
2022-12-19T04:28:37.621Z,71.60
2022-12-19T04:31:06.636Z,71.91
2022-12-19T04:33:34.659Z,72.11
2022-12-19T04:36:04.253Z,72.08
2022-12-19T04:38:32.780Z,71.55
2022-12-19T04:41:00.592Z,71.88
2022-12-19T04:43:28.649Z,71.48
2022-12-19T04:45:57.797Z,71.68
2022-12-19T04:48:26.060Z,72.02
2022-12-19T04:50:54.153Z,72.60
2022-12-19T04:53:23.454Z,72.31
2022-12-19T04:55:51.273Z,72.88
2022-12-19T04:58:22.071Z,73.04
2022-12-19T05:00:50.037Z,72.85
2022-12-19T05:03:18.069Z,73.14
2022-12-19T05:05:46.110Z,72.95
2022-12-19T05:08:13.962Z,72.94
2022-12-19T05:10:43.185Z,73.61
2022-12-19T05:13:11.887Z,73.66
2022-12-19T05:15:39.743Z,73.78
2022-12-19T05:18:07.951Z,73.19
2022-12-19T05:20:38.035Z,73.95
2022-12-19T05:23:09.608Z,73.95
2022-12-19T05:25:44.526Z,73.87
2022-12-19T05:28:12.540Z,74.29
2022-12-19T05:30:40.903Z,74.75
2022-12-19T05:33:08.982Z,75.29
2022-12-19T05:35:37.604Z,75.54
2022-12-19T05:38:05.739Z,75.40
2022-12-19T05:40:34.847Z,75.26
2022-12-19T05:43:04.257Z,75.31
2022-12-19T05:45:32.212Z,75.57
2022-12-19T05:48:01.659Z,74.82
2022-12-19T05:50:29.647Z,74.80
2022-12-19T05:52:57.517Z,75.14
2022-12-19T05:55:25.479Z,75.49
2022-12-19T05:57:53.353Z,75.54
2022-12-19T06:00:23.044Z,75.90
2022-12-19T06:02:51.203Z,75.90
2022-12-19T06:05:19.255Z,76.30
2022-12-19T06:07:47.972Z,76.36
2022-12-19T06:10:15.985Z,77.03
2022-12-19T06:12:43.837Z,77.02
2022-12-19T06:15:12.363Z,77.34
2022-12-19T06:17:41.662Z,77.64
2022-12-19T06:20:10.581Z,77.60
2022-12-19T06:22:38.647Z,77.92
2022-12-19T06:25:07.892Z,78.72
2022-12-19T06:27:35.689Z,78.70
2022-12-19T06:30:03.577Z,78.62
2022-12-19T06:32:36.307Z,78.92
2022-12-19T06:35:08.752Z,79.53
2022-12-19T06:37:39.320Z,78.52
2022-12-19T06:40:29.007Z,79.16
2022-12-19T06:42:55.995Z,78.85
2022-12-19T06:45:23.849Z,78.41
2022-12-19T06:47:51.672Z,78.59
2022-12-19T06:50:20.950Z,78.57
2022-12-19T06:52:49.253Z,78.41
2022-12-19T06:55:17.676Z,78.04
2022-12-19T06:57:46.590Z,78.22
2022-12-19T07:00:15.570Z,77.61
2022-12-19T07:02:46.180Z,78.02
2022-12-19T07:05:15.517Z,77.23
2022-12-19T07:07:44.744Z,77.92
2022-12-19T07:10:12.889Z,78.46
2022-12-19T07:12:40.917Z,79.08
2022-12-19T07:15:09.803Z,78.51
2022-12-19T07:17:38.057Z,78.27
2022-12-19T07:20:07.234Z,78.16
2022-12-19T07:22:37.231Z,77.88
2022-12-19T07:25:07.899Z,78.58
2022-12-19T07:27:38.599Z,78.30
2022-12-19T07:30:08.545Z,78.50
2022-12-19T07:32:36.652Z,78.64
2022-12-19T07:35:04.837Z,78.22
2022-12-19T07:37:32.974Z,78.40
2022-12-19T07:40:01.409Z,77.85
2022-12-19T07:42:32.744Z,77.85
2022-12-19T07:45:01.612Z,79.04
2022-12-19T07:47:29.781Z,79.18
2022-12-19T07:49:57.824Z,79.40
2022-12-19T07:52:25.917Z,79.75
2022-12-19T07:54:53.971Z,80.59
2022-12-19T07:57:22.643Z,81.46
2022-12-19T07:59:51.986Z,81.94
2022-12-19T08:02:20.495Z,82.58
2022-12-19T08:04:48.877Z,82.63
2022-12-19T08:07:16.903Z,83.35
2022-12-19T08:09:48.030Z,83.05
2022-12-19T08:12:16.986Z,83.77
2022-12-19T08:14:45.157Z,83.77
2022-12-19T08:17:22.025Z,84.42
2022-12-19T08:19:53.480Z,84.19
2022-12-19T08:22:21.582Z,85.15
2022-12-19T08:24:49.519Z,85.65
2022-12-19T08:27:18.999Z,86.33
2022-12-19T08:29:47.509Z,86.62
2022-12-19T08:32:21.125Z,87.48
2022-12-19T08:34:49.804Z,87.20
2022-12-19T08:37:18.133Z,87.23
2022-12-19T08:39:46.227Z,87.66
2022-12-19T08:42:14.297Z,88.08
2022-12-19T08:44:42.199Z,88.23
2022-12-19T08:47:10.655Z,88.83
2022-12-19T08:49:40.439Z,88.74
2022-12-19T08:52:08.327Z,89.51
2022-12-19T08:54:36.274Z,89.40
2022-12-19T08:57:04.377Z,89.47
2022-12-19T08:59:32.496Z,90.15
2022-12-19T09:02:01.693Z,89.56
2022-12-19T09:05:46.692Z,90.32
2022-12-19T09:07:19.903Z,90.32
2022-12-19T09:09:47.793Z,90.66
2022-12-19T09:12:17.291Z,91.24
2022-12-19T09:14:45.332Z,91.18
2022-12-19T09:17:13.399Z,91.86
2022-12-19T09:19:45.497Z,91.32
2022-12-19T09:22:16.839Z,91.98
2022-12-19T09:24:47.019Z,91.91
2022-12-19T09:27:15.023Z,91.97
2022-12-19T09:29:43.801Z,91.57
2022-12-19T09:32:11.668Z,92.29
2022-12-19T09:34:39.804Z,91.91
2022-12-19T09:37:09.263Z,91.72
2022-12-19T09:39:45.239Z,91.20
2022-12-19T09:42:41.375Z,92.18
2022-12-19T09:45:50.194Z,93.11
2022-12-19T09:48:24.766Z,93.08
2022-12-19T09:51:09.962Z,93.04
2022-12-19T09:53:54.372Z,93.45
2022-12-19T09:56:27.404Z,93.31
2022-12-19T09:59:03.847Z,93.45
2022-12-19T10:01:38.882Z,93.63
2022-12-19T10:04:12.157Z,93.57
2022-12-19T10:07:14.004Z,93.45
2022-12-19T10:11:30.485Z,93.08
2022-12-19T10:12:50.754Z,93.58
2022-12-19T10:15:30.208Z,93.86
2022-12-19T10:18:17.786Z,93.95
2022-12-19T10:20:51.259Z,94.85
2022-12-19T10:23:42.435Z,94.11
2022-12-19T10:26:19.521Z,94.00
2022-12-19T10:29:05.473Z,94.40
2022-12-19T10:31:42.009Z,94.81
2022-12-19T10:34:19.753Z,94.67
2022-12-19T10:39:54.485Z,95.23
2022-12-19T10:42:33.690Z,95.03
2022-12-19T10:45:10.141Z,94.94
2022-12-19T10:47:41.753Z,95.25
2022-12-19T10:50:13.583Z,95.00
2022-12-19T10:52:52.549Z,94.84
2022-12-19T10:55:44.038Z,94.69
2022-12-19T10:58:24.942Z,94.71
2022-12-19T11:01:15.507Z,95.54
2022-12-19T11:03:48.240Z,95.51
2022-12-19T11:06:55.574Z,95.29
2022-12-19T11:09:29.638Z,95.20
2022-12-19T11:15:45.354Z,94.79
2022-12-19T11:21:35.305Z,94.36
2022-12-19T11:24:14.523Z,94.76
2022-12-19T11:29:36.906Z,95.08
2022-12-19T11:29:40.284Z,94.79
2022-12-19T11:29:41.740Z,94.72
2022-12-19T11:29:46.777Z,94.77
2022-12-19T11:34:51.171Z,94.64
2022-12-19T11:37:28.827Z,94.87
2022-12-19T11:40:02.199Z,95.13
2022-12-19T11:42:36.952Z,94.84
2022-12-19T11:45:16.058Z,95.21
2022-12-19T11:47:50.330Z,95.29
2022-12-19T11:50:24.347Z,95.59
2022-12-19T11:53:07.803Z,95.54
2022-12-19T11:55:45.434Z,95.85
2022-12-19T11:58:14.824Z,96.18
2022-12-19T12:00:52.341Z,95.46
2022-12-19T12:03:51.797Z,95.66
2022-12-19T12:06:34.208Z,95.65
2022-12-19T12:10:48.583Z,96.17
2022-12-19T12:19:39.182Z,96.44
2022-12-19T12:26:11.578Z,96.60
2022-12-19T12:31:01.215Z,97.10
2022-12-19T12:31:08.293Z,98.05
2022-12-19T12:31:43.274Z,98.00
2022-12-19T12:31:48.513Z,98.08
2022-12-19T12:31:52.920Z,97.54
2022-12-19T12:35:42.533Z,97.94
2022-12-19T12:37:52.552Z,97.57
2022-12-19T12:39:25.363Z,98.19
2022-12-19T12:42:06.182Z,98.00
2022-12-19T12:44:43.124Z,98.14
2022-12-19T12:47:18.273Z,98.21
2022-12-19T12:49:49.135Z,98.08
2022-12-19T12:52:21.337Z,98.28
2022-12-19T12:54:52.302Z,98.30
2022-12-19T12:57:34.829Z,98.97
2022-12-19T13:00:20.355Z,98.95
2022-12-19T13:02:53.802Z,99.20
2022-12-19T13:05:35.272Z,98.94
2022-12-19T13:08:03.570Z,99.43
2022-12-19T13:10:33.310Z,99.55
2022-12-19T13:13:14.168Z,98.61
2022-12-19T13:15:44.995Z,98.79
2022-12-19T13:18:38.858Z,98.02
2022-12-19T13:21:10.774Z,99.08
2022-12-19T13:23:47.656Z,98.38
2022-12-19T13:26:52.620Z,99.08
2022-12-19T13:29:32.723Z,98.47
2022-12-19T13:32:13.895Z,97.84
2022-12-19T13:34:58.248Z,98.28
2022-12-19T13:40:02.342Z,96.84
2022-12-19T13:40:35.400Z,97.16
2022-12-19T13:43:34.561Z,96.71
2022-12-19T13:46:04.965Z,97.69
2022-12-19T13:48:36.567Z,97.88
2022-12-19T13:51:06.825Z,97.14
2022-12-19T13:53:35.101Z,97.36
2022-12-19T13:56:05.540Z,97.40
2022-12-19T13:58:39.069Z,97.71
2022-12-19T14:01:21.787Z,98.09
2022-12-19T14:03:52.846Z,98.38
2022-12-19T14:06:26.328Z,99.75
2022-12-19T14:11:24.294Z,99.77
2022-12-19T14:12:27.075Z,98.61
2022-12-19T14:15:13.102Z,99.02
2022-12-19T14:17:42.687Z,99.15
2022-12-19T14:22:02.495Z,99.03
2022-12-19T14:23:07.846Z,99.59
2022-12-19T14:28:15.638Z,99.53
2022-12-19T14:28:39.355Z,100.00
2022-12-19T14:31:14.065Z,100.00
2022-12-19T14:34:04.788Z,100.00
2022-12-19T14:36:35.121Z,100.00
2022-12-19T14:39:27.303Z,100.00
2022-12-19T14:42:11.907Z,100.00
2022-12-19T14:54:01.162Z,100.00
2022-12-19T14:54:14.513Z,100.00
2022-12-19T14:54:40.195Z,100.00
2022-12-19T14:54:52.536Z,100.00
2022-12-19T14:59:02.498Z,100.00
2022-12-19T15:01:33.244Z,100.00
2022-12-19T15:04:49.245Z,100.00
2022-12-19T15:07:07.492Z,100.00
2022-12-19T15:11:06.149Z,100.00
2022-12-19T15:14:50.736Z,100.00
2022-12-19T15:15:59.186Z,100.00
2022-12-19T15:18:30.118Z,100.00
2022-12-19T15:21:01.071Z,100.00
2022-12-19T15:23:29.707Z,100.00
2022-12-19T15:26:03.950Z,100.00
2022-12-19T15:28:38.813Z,100.00
2022-12-19T15:31:13.230Z,100.00
2022-12-19T15:34:06.674Z,100.00
2022-12-19T15:36:30.812Z,100.00
2022-12-19T15:38:59.318Z,100.00
2022-12-19T15:41:27.279Z,100.00
2022-12-19T15:44:04.889Z,100.00
2022-12-19T15:46:34.092Z,100.00
2022-12-19T15:49:02.392Z,100.00
2022-12-19T15:51:31.685Z,100.00
2022-12-19T15:54:38.430Z,100.00
2022-12-19T15:56:51.077Z,100.00
2022-12-19T15:59:36.424Z,100.00
2022-12-19T16:02:16.907Z,100.00
2022-12-19T16:04:46.323Z,100.00
2022-12-19T16:07:18.389Z,100.00
2022-12-19T16:09:46.879Z,100.00
2022-12-19T16:12:17.002Z,100.00
2022-12-19T16:14:46.115Z,100.00
2022-12-19T16:17:19.205Z,100.00
2022-12-19T16:19:47.262Z,100.00
2022-12-19T16:22:20.552Z,100.00
2022-12-19T16:24:48.756Z,100.00
2022-12-19T16:27:24.012Z,100.00
2022-12-19T16:29:52.955Z,100.00
2022-12-19T16:32:23.589Z,100.00
2022-12-19T16:34:52.334Z,100.00
2022-12-19T16:37:24.645Z,100.00
2022-12-19T16:39:56.643Z,100.00
2022-12-19T16:42:24.717Z,100.00
2022-12-19T16:44:53.616Z,100.00
2022-12-19T16:47:21.966Z,100.00
2022-12-19T16:49:50.254Z,100.00
2022-12-19T16:52:18.090Z,100.00
2022-12-19T16:54:48.555Z,100.00
2022-12-19T16:57:20.764Z,100.00
2022-12-19T16:59:49.851Z,100.00
2022-12-19T17:02:40.462Z,100.00
2022-12-19T17:05:15.329Z,100.00
2022-12-19T17:07:43.399Z,100.00
2022-12-19T17:10:12.895Z,100.00
2022-12-19T17:12:42.374Z,100.00
2022-12-19T17:15:21.215Z,100.00
2022-12-19T17:17:49.694Z,100.00
2022-12-19T17:20:20.301Z,100.00
2022-12-19T17:22:48.866Z,100.00
2022-12-19T17:25:22.281Z,100.00
2022-12-19T17:27:50.598Z,100.00
2022-12-19T17:30:18.811Z,100.00
2022-12-19T17:32:49.618Z,100.00
2022-12-19T17:35:23.957Z,100.00
2022-12-19T17:37:57.681Z,100.00
2022-12-19T17:40:29.470Z,100.00
2022-12-19T17:42:58.098Z,100.00
2022-12-19T17:45:28.117Z,100.00
2022-12-19T17:48:02.589Z,100.00
2022-12-19T17:50:58.382Z,100.00
2022-12-19T17:53:27.062Z,100.00
2022-12-19T17:55:56.790Z,100.00
2022-12-19T17:58:25.557Z,100.00
2022-12-19T18:00:53.818Z,100.00
2022-12-19T18:03:24.279Z,100.00
2022-12-19T18:05:54.632Z,100.00
2022-12-19T18:08:29.020Z,100.00
2022-12-19T18:11:01.597Z,100.00
2022-12-19T18:13:31.404Z,100.00
2022-12-19T18:16:02.064Z,100.00
2022-12-19T18:18:33.387Z,100.00
2022-12-19T18:21:02.578Z,100.00
2022-12-19T18:23:31.572Z,100.00
2022-12-19T18:26:02.610Z,100.00
2022-12-19T18:28:31.789Z,100.00
2022-12-19T18:31:02.295Z,100.00
2022-12-19T18:33:36.039Z,100.00
2022-12-19T18:36:04.136Z,100.00
2022-12-19T18:38:32.898Z,100.00
2022-12-19T18:41:02.606Z,100.00
2022-12-19T18:43:35.239Z,100.00
2022-12-19T18:46:03.880Z,100.00
2022-12-19T18:48:34.845Z,100.00
2022-12-19T18:51:03.701Z,99.96
2022-12-19T18:53:35.520Z,99.39
2022-12-19T18:56:09.214Z,98.51
2022-12-19T18:58:37.799Z,98.75
2022-12-19T19:01:08.199Z,99.14
2022-12-19T19:03:39.984Z,98.15
2022-12-19T19:06:19.162Z,97.68
2022-12-19T19:08:47.302Z,97.45
2022-12-19T19:11:16.640Z,97.46
2022-12-19T19:13:44.726Z,97.43
2022-12-19T19:16:17.993Z,97.75
2022-12-19T19:18:46.591Z,96.92
2022-12-19T19:21:15.796Z,96.98
2022-12-19T19:23:48.883Z,96.06
2022-12-19T19:26:18.211Z,96.62
2022-12-19T19:28:51.764Z,96.26
2022-12-19T19:31:23.477Z,96.42
2022-12-19T19:33:55.802Z,96.75
2022-12-19T19:36:27.102Z,96.90
2022-12-19T19:39:00.102Z,96.78
2022-12-19T19:41:30.106Z,96.09
2022-12-19T19:43:58.917Z,95.45
2022-12-19T19:46:27.612Z,95.19
2022-12-19T19:48:56.193Z,94.45
2022-12-19T19:51:24.390Z,95.13
2022-12-19T19:53:52.251Z,94.78
2022-12-19T19:56:20.204Z,94.24
2022-12-19T19:58:49.451Z,93.89
2022-12-19T20:01:17.365Z,94.21
2022-12-19T20:03:45.714Z,93.93
2022-12-19T20:06:13.876Z,92.98
2022-12-19T20:08:41.849Z,92.48
2022-12-19T20:11:10.751Z,92.14
2022-12-19T20:13:39.289Z,91.64
2022-12-19T20:16:10.675Z,91.48
2022-12-19T20:18:39.912Z,91.22
2022-12-19T20:21:13.137Z,90.20
2022-12-19T20:23:43.036Z,90.38
2022-12-19T20:26:12.523Z,89.32
2022-12-19T20:28:47.720Z,88.39
2022-12-19T20:31:19.047Z,88.01
2022-12-19T20:33:48.305Z,88.22
2022-12-19T20:36:17.219Z,88.14
2022-12-19T20:38:45.268Z,86.84
2022-12-19T20:41:14.176Z,87.20
2022-12-19T20:43:42.240Z,86.72
2022-12-19T20:46:13.746Z,87.59
2022-12-19T20:48:43.627Z,86.78
2022-12-19T20:51:15.056Z,86.93
2022-12-19T20:53:43.796Z,86.57
2022-12-19T20:56:15.017Z,86.65
2022-12-19T20:58:42.992Z,85.54
2022-12-19T21:01:12.755Z,86.19
2022-12-19T21:03:42.821Z,85.84
2022-12-19T21:06:13.488Z,85.05
2022-12-19T21:08:43.430Z,85.70
2022-12-19T21:11:11.702Z,85.42
2022-12-19T21:13:41.048Z,85.62
2022-12-19T21:16:12.263Z,84.53
2022-12-19T21:18:43.522Z,84.29
2022-12-19T21:21:15.129Z,83.83
2022-12-19T21:23:43.326Z,83.38
2022-12-19T21:26:11.637Z,83.97
2022-12-19T21:28:39.785Z,84.33
2022-12-19T21:31:13.037Z,84.09
2022-12-19T21:33:42.611Z,83.70
2022-12-19T21:36:12.638Z,83.20
2022-12-19T21:38:41.406Z,83.35
2022-12-19T21:41:09.804Z,83.46
2022-12-19T21:43:38.129Z,84.19
2022-12-19T21:46:10.728Z,84.18
2022-12-19T21:48:40.191Z,84.07
2022-12-19T21:51:10.667Z,84.12
2022-12-19T21:53:39.814Z,83.72
2022-12-19T21:56:09.616Z,83.07
2022-12-19T21:58:37.582Z,83.39
2022-12-19T22:01:08.351Z,83.82
2022-12-19T22:03:37.002Z,83.76
2022-12-19T22:06:05.569Z,83.62
2022-12-19T22:08:34.800Z,83.96
2022-12-19T22:11:03.105Z,84.08
2022-12-19T22:13:31.527Z,84.03
2022-12-19T22:16:03.353Z,84.78
2022-12-19T22:18:31.379Z,84.13
2022-12-19T22:20:59.975Z,84.51
2022-12-19T22:23:28.683Z,85.41
2022-12-19T22:26:06.179Z,84.98
2022-12-19T22:28:36.497Z,85.01
2022-12-19T22:31:05.381Z,84.88
2022-12-19T22:33:33.366Z,83.92
2022-12-19T22:36:06.595Z,83.71
2022-12-19T22:38:34.497Z,83.35
2022-12-19T22:41:06.078Z,82.95
2022-12-19T22:43:35.479Z,82.67
2022-12-19T22:46:11.366Z,82.05
2022-12-19T22:48:39.772Z,82.25
2022-12-19T22:51:08.935Z,82.74
2022-12-19T22:53:37.670Z,82.67
2022-12-19T22:56:09.644Z,83.16
2022-12-19T22:58:38.963Z,81.84
2022-12-19T23:01:14.424Z,82.91
2022-12-19T23:03:42.585Z,83.45
2022-12-19T23:06:10.834Z,82.69
2022-12-19T23:08:39.071Z,83.68
2022-12-19T23:11:10.935Z,83.42
2022-12-19T23:13:39.261Z,84.20
2022-12-19T23:16:09.227Z,83.89
2022-12-19T23:18:37.943Z,84.02
2022-12-19T23:21:07.848Z,83.66
2022-12-19T23:23:40.220Z,84.33
2022-12-19T23:26:15.601Z,84.09
2022-12-19T23:28:44.794Z,83.12
2022-12-19T23:31:14.439Z,83.22
2022-12-19T23:33:42.345Z,83.29
2022-12-19T23:36:10.869Z,83.35
2022-12-19T23:38:38.769Z,83.00
2022-12-19T23:41:11.186Z,82.99
2022-12-19T23:43:39.582Z,83.60
2022-12-19T23:46:08.182Z,83.52
2022-12-19T23:48:36.344Z,82.75
2022-12-19T23:51:05.935Z,82.54
2022-12-19T23:53:35.263Z,82.88
2022-12-19T23:56:05.008Z,83.00
2022-12-19T23:58:34.272Z,83.57
